Terminal Aerodrome Forecast
Issued by NWS

Home | Current Version | Previous Version | Text Only | Print | Product List | Glossary On
Versions: 1 2 3 4 5 6 7 8 9 10 11 12 13 14 15 16
226
FTUS46 KSEW 270522
TAFBFI
TAF
KBFI 270522Z 2706/2806 VRB03KT P6SM BKN035 BKN050
     FM271700 15005KT P6SM VCSH BKN030
     FM272100 18006KT P6SM VCSH BKN035
     FM280500 15005KT P6SM BKN040=

USA.gov is the U.S. government's official web portal to all federal, state and local government web resources and services.